Time;durP1;ratioP1;P1;durP2;ratioP2;P2;SDS_P1;SDS_P2;PMS_P1;PMS_P2;Temp;Humidity;BMP_temperature;BMP_pressure;BME280_temperature;BME280_humidity;BME280_pressure;Samples;Min_cycle;Max_cycle;Signal;HPM_P1;HPM_P2
2023/01/28 00:00:52;;;;;;;51.90;27.20;;;;;;;0.51;84.22;100817.27;102959;1248;1003462;-74
2023/01/28 00:03:24;;;;;;;49.80;26.20;;;;;;;0.51;84.23;100819.48;104185;1248;139077;-75
2023/01/28 00:05:53;;;;;;;51.10;26.90;;;;;;;0.52;84.21;100822.41;103642;1253;96451;-85
2023/01/28 00:08:20;;;;;;;58.00;28.90;;;;;;;0.51;84.24;100818.98;103738;1253;110031;-80
2023/01/28 00:10:47;;;;;;;53.90;27.50;;;;;;;0.51;84.30;100812.98;103422;1253;138229;-80
2023/01/28 00:13:14;;;;;;;52.80;26.50;;;;;;;0.50;84.17;100816.57;104355;1248;94996;-77
2023/01/28 00:15:42;;;;;;;54.60;27.80;;;;;;;0.50;84.07;100815.70;103650;1251;138124;-74
2023/01/28 00:18:09;;;;;;;55.60;28.20;;;;;;;0.51;84.33;100816.57;103572;1253;96456;-80
2023/01/28 00:20:36;;;;;;;56.10;27.70;;;;;;;0.53;84.42;100816.10;103657;1253;110488;-77
2023/01/28 00:23:04;;;;;;;51.40;27.00;;;;;;;0.54;84.43;100816.48;104077;1248;139617;-71
2023/01/28 00:25:32;;;;;;;49.60;27.30;;;;;;;0.55;84.35;100815.48;103603;1253;96524;-76
2023/01/28 00:27:59;;;;;;;49.50;27.90;;;;;;;0.57;84.41;100814.98;103388;1248;138183;-83
2023/01/28 00:30:26;;;;;;;51.10;27.70;;;;;;;0.58;84.37;100815.52;102826;1248;1002627;-80
2023/01/28 00:32:56;;;;;;;54.10;27.70;;;;;;;0.58;84.29;100815.52;104583;1248;110574;-76
2023/01/28 00:35:23;;;;;;;49.60;28.00;;;;;;;0.59;84.37;100819.80;104774;1251;107407;-76
2023/01/28 00:37:50;;;;;;;53.70;28.70;;;;;;;0.58;84.41;100818.43;102799;1248;1002711;-77
2023/01/28 00:40:19;;;;;;;55.70;28.60;;;;;;;0.60;84.50;100819.83;103282;1253;138385;-84
2023/01/28 00:42:46;;;;;;;55.70;28.50;;;;;;;0.60;84.41;100820.50;103385;1256;97181;-86
2023/01/28 00:45:14;;;;;;;53.30;28.10;;;;;;;0.60;84.52;100819.48;104039;1253;138452;-82
2023/01/28 00:47:43;;;;;;;57.40;30.30;;;;;;;0.62;84.65;100820.02;102971;1251;1003222;-85
2023/01/28 00:50:11;;;;;;;55.20;28.60;;;;;;;0.63;84.56;100819.34;103789;1253;96906;-85
2023/01/28 00:52:38;;;;;;;54.60;28.30;;;;;;;0.63;84.43;100820.20;104834;1248;138816;-80
2023/01/28 00:55:07;;;;;;;55.50;28.30;;;;;;;0.63;84.64;100814.90;103424;1253;96517;-73
2023/01/28 00:57:34;;;;;;;56.80;27.70;;;;;;;0.63;84.53;100817.81;102776;1248;1003001;-71
2023/01/28 01:00:01;;;;;;;51.00;27.50;;;;;;;0.62;84.39;100816.09;103490;1248;107555;-75
2023/01/28 01:02:28;;;;;;;50.80;27.90;;;;;;;0.62;84.44;100813.34;103616;1248;96453;-77
2023/01/28 01:04:58;;;;;;;55.30;28.50;;;;;;;0.63;84.50;100813.89;103572;1252;138724;-78
2023/01/28 01:07:33;;;;;;;51.00;27.50;;;;;;;0.65;84.62;100812.53;102627;1248;1003294;-77
2023/01/28 01:10:01;;;;;;;55.40;27.50;;;;;;;0.66;84.39;100813.23;102708;1253;1003124;-77
2023/01/28 01:12:28;;;;;;;52.90;27.90;;;;;;;0.67;84.44;100814.80;103405;1256;108768;-79
2023/01/28 01:14:55;;;;;;;51.80;27.10;;;;;;;0.68;84.48;100817.88;103683;1248;96322;-80
2023/01/28 01:17:23;;;;;;;50.90;27.30;;;;;;;0.68;84.53;100815.84;103470;1251;138231;-77
2023/01/28 01:19:50;;;;;;;52.40;27.50;;;;;;;0.69;84.57;100813.29;103536;1253;97192;-75
2023/01/28 01:22:17;;;;;;;52.70;28.20;;;;;;;0.68;84.36;100813.77;103209;1248;137999;-74
2023/01/28 01:24:44;;;;;;;53.40;28.20;;;;;;;0.66;84.44;100815.12;103451;1251;108336;-76
2023/01/28 01:27:11;;;;;;;53.80;29.60;;;;;;;0.64;84.50;100814.23;103509;1254;139384;-72
2023/01/28 01:29:38;;;;;;;52.90;27.00;;;;;;;0.65;84.69;100813.55;103561;1251;108460;-80
2023/01/28 01:32:06;;;;;;;54.60;27.30;;;;;;;0.64;84.66;100810.46;103513;1249;96414;-74
2023/01/28 01:34:33;;;;;;;52.50;27.80;;;;;;;0.61;84.78;100807.35;103839;1253;138013;-70
2023/01/28 01:37:00;;;;;;;51.20;26.80;;;;;;;0.59;84.72;100808.36;103603;1253;107676;-68
2023/01/28 01:39:28;;;;;;;48.50;26.90;;;;;;;0.60;84.87;100806.14;103561;1253;139545;-70
2023/01/28 01:41:55;;;;;;;52.30;28.30;;;;;;;0.62;85.34;100808.39;103827;1247;106867;-67
2023/01/28 01:44:52;;;;;;;53.00;28.70;;;;;;;0.64;85.26;100807.39;104191;1252;96437;-66
2023/01/28 01:47:18;;;;;;;;;;;;;;;0.66;85.32;100808.97;103333;1255;137803;-72
2023/01/28 01:49:46;;;;;;;45.90;25.80;;;;;;;0.67;85.32;100810.34;102730;1253;1002800;-77
2023/01/28 01:52:19;;;;;;;49.40;26.40;;;;;;;0.71;85.84;100810.91;103292;1251;138415;-70
2023/01/28 01:54:51;;;;;;;47.70;25.90;;;;;;;0.74;85.65;100809.64;105036;1251;109349;-74
2023/01/28 01:57:24;;;;;;;50.50;25.50;;;;;;;0.75;85.47;100810.16;104212;1250;1002522;-71
2023/01/28 01:59:51;;;;;;;48.50;26.70;;;;;;;0.76;85.46;100810.00;105103;1248;110166;-73
2023/01/28 02:02:19;;;;;;;45.30;26.30;;;;;;;0.76;85.46;100811.20;104220;1252;1003053;-75
2023/01/28 02:04:46;;;;;;;46.90;26.30;;;;;;;0.78;85.41;100813.29;104805;1251;139219;-70
2023/01/28 02:07:18;;;;;;;44.30;25.20;;;;;;;0.81;85.15;100815.55;105047;1251;107700;-75
2023/01/28 02:09:46;;;;;;;45.00;25.10;;;;;;;0.81;85.11;100812.30;104958;1250;138253;-71
2023/01/28 02:12:17;;;;;;;44.70;24.30;;;;;;;0.82;84.97;100814.73;105107;1251;110268;-76
2023/01/28 02:14:48;;;;;;;44.80;25.20;;;;;;;0.85;85.57;100816.64;104552;1254;106216;-69
2023/01/28 02:17:16;;;;;;;42.30;24.60;;;;;;;0.87;85.31;100812.39;102678;1251;1003486;-70
2023/01/28 02:20:30;;;;;;;44.40;24.70;;;;;;;0.86;85.38;100817.34;103398;1251;107244;-70
2023/01/28 02:23:22;;;;;;;44.30;25.20;;;;;;;0.87;85.27;100815.64;103327;1248;138821;-69
2023/01/28 02:26:16;;;;;;;42.20;24.10;;;;;;;0.89;85.33;100818.75;101431;1262;1003303;-72
2023/01/28 02:28:49;;;;;;;41.30;22.80;;;;;;;0.88;85.20;100814.30;102984;1258;139416;-70
2023/01/28 02:31:23;;;;;;;44.50;23.80;;;;;;;0.88;85.08;100818.39;103167;1259;97127;-69
2023/01/28 02:33:56;;;;;;;39.30;23.80;;;;;;;0.87;85.06;100817.02;102665;1256;1003406;-71
2023/01/28 02:36:34;;;;;;;39.20;23.40;;;;;;;0.87;84.99;100818.73;102311;1259;1002488;-71
2023/01/28 02:39:09;;;;;;;39.80;23.00;;;;;;;0.86;84.99;100819.05;103138;1259;109698;-70
2023/01/28 02:41:43;;;;;;;37.00;22.10;;;;;;;0.85;84.93;100816.64;102930;1261;107937;-72
2023/01/28 02:44:11;;;;;;;42.70;22.50;;;;;;;0.85;84.94;100814.59;102895;1255;96350;-71
2023/01/28 02:49:29;;;;;;;35.10;20.60;;;;;;;0.85;84.83;100819.20;102403;1258;1003404;-73
2023/01/28 02:52:08;;;;;;;37.20;20.90;;;;;;;0.83;84.87;100822.94;104427;1254;140234;-73
2023/01/28 02:54:45;;;;;;;35.70;21.30;;;;;;;0.81;84.76;100817.78;103624;1254;1002644;-73
2023/01/28 02:57:23;;;;;;;38.00;21.50;;;;;;;0.81;84.99;100823.09;104458;1254;138540;-73
2023/01/28 03:00:01;;;;;;;33.90;20.00;;;;;;;0.79;84.74;100821.70;104416;1256;107283;-69
2023/01/28 03:02:36;;;;;;;32.20;19.50;;;;;;;0.78;84.75;100823.55;104377;1254;94677;-72
2023/01/28 03:05:11;;;;;;;32.70;19.40;;;;;;;0.79;84.67;100825.62;104882;1251;137968;-73
2023/01/28 03:07:39;;;;;;;34.60;20.40;;;;;;;0.80;84.78;100828.38;103813;1251;108093;-72
2023/01/28 03:10:15;;;;;;;31.60;18.50;;;;;;;0.80;84.81;100826.33;103294;1251;139603;-73
2023/01/28 03:38:17;;;;;;;29.20;17.80;;;;;;;0.81;84.95;100824.80;103757;1252;96327;-74
2023/01/28 03:40:52;;;;;;;34.10;19.40;;;;;;;0.77;84.96;100818.75;103432;1254;138775;-74
2023/01/28 03:43:20;;;;;;;31.10;18.70;;;;;;;0.75;84.85;100823.17;102813;1253;1002992;-73
2023/01/28 03:45:50;;;;;;;32.50;19.50;;;;;;;0.76;85.04;100824.05;103637;1248;138569;-74
2023/01/28 03:48:17;;;;;;;29.70;18.20;;;;;;;0.78;85.20;100826.30;103620;1251;106687;-73
2023/01/28 03:50:44;;;;;;;28.80;18.30;;;;;;;0.79;85.16;100828.88;103628;1253;96450;-74
2023/01/28 03:53:14;;;;;;;31.50;18.20;;;;;;;0.79;85.05;100830.07;103443;1251;139029;-73
2023/01/28 03:55:44;;;;;;;31.90;18.20;;;;;;;0.77;85.20;100824.23;103748;1253;96322;-73
2023/01/28 03:58:12;;;;;;;29.60;18.10;;;;;;;0.78;85.10;100828.86;103503;1254;138279;-73
2023/01/28 04:00:40;;;;;;;29.60;17.90;;;;;;;0.80;85.20;100825.12;103450;1253;108038;-74
2023/01/28 04:03:14;;;;;;;29.10;18.10;;;;;;;0.81;85.23;100823.77;104129;1248;96486;-73
2023/01/28 04:05:46;;;;;;;34.10;19.30;;;;;;;0.82;85.34;100819.85;103789;1247;107546;-73
2023/01/28 04:08:13;;;;;;;30.30;17.90;;;;;;;0.82;85.24;100823.77;103583;1254;96360;-73
2023/01/28 04:10:53;;;;;;;27.60;17.30;;;;;;;0.80;85.02;100827.36;102890;1254;1003303;-73
2023/01/28 04:13:25;;;;;;;30.40;18.70;;;;;;;0.80;85.09;100827.19;103547;1254;107344;-73
2023/01/28 04:15:52;;;;;;;30.10;18.20;;;;;;;0.81;85.01;100826.67;103490;1253;138104;-73
2023/01/28 04:18:26;;;;;;;29.90;17.60;;;;;;;0.81;84.85;100827.02;103752;1254;107833;-73
2023/01/28 04:20:54;;;;;;;28.30;17.30;;;;;;;0.80;84.97;100824.77;103513;1251;96894;-72
2023/01/28 04:23:21;;;;;;;29.30;18.10;;;;;;;0.79;84.91;100823.23;103438;1254;138693;-73
2023/01/28 04:25:51;;;;;;;29.00;17.70;;;;;;;0.80;84.88;100825.13;103734;1249;107761;-73
2023/01/28 04:28:18;;;;;;;32.50;19.00;;;;;;;0.80;84.96;100824.09;103660;1253;138115;-73
2023/01/28 04:30:45;;;;;;;32.10;18.30;;;;;;;0.80;84.77;100824.10;103820;1253;107708;-72
2023/01/28 04:33:24;;;;;;;31.40;18.90;;;;;;;0.80;85.13;100826.66;103721;1250;139196;-75
2023/01/28 04:35:57;;;;;;;29.10;17.40;;;;;;;0.79;84.91;100830.76;103735;1248;110061;-73
2023/01/28 04:38:35;;;;;;;31.10;18.80;;;;;;;0.79;85.02;100834.52;103745;1254;107188;-74
2023/01/28 04:41:10;;;;;;;30.00;18.30;;;;;;;0.79;84.87;100833.48;103527;1254;138732;-74
2023/01/28 04:43:37;;;;;;;28.80;17.80;;;;;;;0.79;84.88;100830.41;103771;1248;107771;-74
2023/01/28 04:46:27;;;;;;;31.80;19.20;;;;;;;0.80;84.96;100830.77;103596;1253;138121;-73
2023/01/28 04:49:02;;;;;;;31.20;18.70;;;;;;;0.78;85.05;100834.00;103809;1250;110689;-73
2023/01/28 04:51:45;;;;;;;35.60;19.50;;;;;;;0.77;84.99;100835.02;103436;1253;138916;-73
2023/01/28 04:54:30;;;;;;;36.10;20.40;;;;;;;0.76;84.84;100834.99;103792;1253;96327;-74
2023/01/28 04:57:00;;;;;;;33.40;18.50;;;;;;;0.77;84.96;100833.29;103572;1254;107049;-72
2023/01/28 04:59:27;;;;;;;32.30;19.00;;;;;;;0.76;84.95;100834.14;103479;1253;139715;-73
2023/01/28 05:01:54;;;;;;;32.60;18.90;;;;;;;0.77;84.97;100837.58;103654;1253;108656;-73
2023/01/28 05:04:21;;;;;;;31.90;19.10;;;;;;;0.76;85.02;100836.71;103630;1247;138215;-72
2023/01/28 05:06:48;;;;;;;32.20;19.10;;;;;;;0.76;84.80;100839.10;103801;1248;96436;-72
2023/01/28 05:09:22;;;;;;;32.60;19.60;;;;;;;0.76;84.77;100839.77;103396;1250;138669;-71
2023/01/28 05:11:50;;;;;;;29.90;18.10;;;;;;;0.76;84.94;100840.80;103513;1248;96409;-73
2023/01/28 05:14:17;;;;;;;30.00;18.00;;;;;;;0.74;84.77;100837.17;103527;1247;110260;-73
2023/01/28 05:16:49;;;;;;;30.60;19.00;;;;;;;0.74;84.88;100839.59;102876;1248;1003224;-73
2023/01/28 05:19:17;;;;;;;31.70;18.20;;;;;;;0.73;84.84;100843.32;103735;1254;96331;-72
2023/01/28 05:21:45;;;;;;;32.30;18.60;;;;;;;0.69;84.55;100841.01;103719;1253;138136;-72
2023/01/28 05:24:38;;;;;;;30.10;18.10;;;;;;;0.67;84.94;100841.49;102921;1248;1003274;-72
2023/01/28 05:27:06;;;;;;;30.90;18.70;;;;;;;0.67;85.02;100845.26;103551;1253;109028;-73
2023/01/28 05:29:33;;;;;;;32.40;18.70;;;;;;;0.68;85.13;100848.52;103738;1248;108169;-73
2023/01/28 05:32:00;;;;;;;27.70;17.90;;;;;;;0.67;84.91;100845.09;103853;1248;96327;-73
2023/01/28 05:34:28;;;;;;;30.40;18.70;;;;;;;0.66;84.93;100848.48;102694;1251;1002988;-73
2023/01/28 05:36:55;;;;;;;31.80;18.90;;;;;;;0.67;84.98;100847.64;103748;1253;96417;-72
2023/01/28 05:39:30;;;;;;;32.30;18.30;;;;;;;0.67;85.19;100846.11;103493;1253;138117;-73
2023/01/28 05:41:57;;;;;;;31.20;18.10;;;;;;;0.66;85.24;100846.10;102827;1254;1003451;-73
2023/01/28 05:44:24;;;;;;;32.50;18.90;;;;;;;0.67;85.41;100850.56;103585;1248;96453;-73
2023/01/28 05:47:05;;;;;;;30.50;18.10;;;;;;;0.67;85.28;100846.96;103619;1247;137954;-73
2023/01/28 05:50:01;;;;;;;34.20;18.70;;;;;;;0.64;85.02;100847.94;103283;1259;96721;-73
2023/01/28 05:52:58;;;;;;;29.40;17.50;;;;;;;0.62;85.31;100853.40;103491;1253;138152;-74
2023/01/28 05:55:30;;;;;;;31.70;18.20;;;;;;;0.60;85.00;100853.02;103584;1251;108567;-74
2023/01/28 05:57:57;;;;;;;31.90;17.90;;;;;;;0.60;85.32;100852.52;103469;1251;139894;-74
2023/01/28 06:00:25;;;;;;;33.60;19.30;;;;;;;0.60;85.16;100850.63;103524;1251;107341;-75
2023/01/28 06:02:54;;;;;;;30.20;18.40;;;;;;;0.62;85.23;100851.69;103437;1254;96420;-74
2023/01/28 06:05:22;;;;;;;31.30;17.80;;;;;;;0.63;85.39;100851.86;103720;1248;138018;-74
2023/01/28 06:07:49;;;;;;;33.40;19.60;;;;;;;0.61;85.02;100850.47;103101;1248;1003389;-73
2023/01/28 06:10:17;;;;;;;36.10;20.00;;;;;;;0.59;85.33;100856.96;102765;1248;1002780;-73
2023/01/28 06:12:45;;;;;;;34.40;19.10;;;;;;;0.59;85.23;100859.52;103787;1248;107548;-74
2023/01/28 06:15:31;;;;;;;33.20;18.80;;;;;;;0.62;85.48;100866.05;103470;1254;138412;-74
2023/01/28 06:18:11;;;;;;;34.00;19.60;;;;;;;0.61;85.56;100864.16;103622;1253;109633;-73
2023/01/28 06:20:38;;;;;;;35.70;19.50;;;;;;;0.64;85.62;100869.67;103580;1247;106913;-74
2023/01/28 06:23:05;;;;;;;35.90;20.10;;;;;;;0.67;85.92;100867.50;103608;1251;138682;-74
2023/01/28 06:25:32;;;;;;;33.50;20.00;;;;;;;0.67;85.66;100871.44;103515;1251;106924;-74
2023/01/28 06:28:05;;;;;;;36.90;19.20;;;;;;;0.66;85.78;100872.29;103522;1251;138296;-74
2023/01/28 06:30:32;;;;;;;35.40;19.50;;;;;;;0.68;86.10;100877.28;103712;1252;110105;-73
2023/01/28 06:32:59;;;;;;;33.80;18.60;;;;;;;0.71;85.91;100875.27;102975;1248;1002990;-73
2023/01/28 06:35:26;;;;;;;36.30;20.50;;;;;;;0.72;85.82;100877.36;103664;1250;140383;-73
2023/01/28 06:37:53;;;;;;;35.70;19.40;;;;;;;0.73;86.19;100880.29;103678;1251;108189;-73
2023/01/28 06:40:21;;;;;;;34.10;19.30;;;;;;;0.74;86.08;100877.06;102797;1250;1002972;-73
2023/01/28 06:42:48;;;;;;;38.60;19.40;;;;;;;0.75;86.27;100879.14;103806;1254;109197;-74
2023/01/28 06:45:16;;;;;;;33.60;18.60;;;;;;;0.77;85.96;100886.02;103609;1248;138653;-74
2023/01/28 06:47:42;;;;;;;33.90;19.20;;;;;;;0.77;86.28;100883.11;103750;1251;96990;-74
2023/01/28 06:50:11;;;;;;;33.30;18.10;;;;;;;0.79;85.92;100885.37;103768;1247;106324;-74
2023/01/28 06:52:39;;;;;;;32.80;17.30;;;;;;;0.79;86.07;100882.10;104057;1250;138138;-74
2023/01/28 06:55:07;;;;;;;35.80;18.70;;;;;;;0.78;86.05;100884.15;103671;1248;110201;-73
2023/01/28 06:57:34;;;;;;;36.60;18.90;;;;;;;0.77;86.30;100886.02;103626;1248;138235;-73
2023/01/28 07:00:01;;;;;;;33.60;17.80;;;;;;;0.75;85.91;100885.64;103848;1250;96433;-72
2023/01/28 07:02:28;;;;;;;33.40;18.10;;;;;;;0.73;86.09;100891.60;103724;1253;109269;-73
2023/01/28 07:04:54;;;;;;;35.50;18.20;;;;;;;0.71;86.10;100893.59;103660;1247;139288;-73
2023/01/28 07:07:22;;;;;;;30.60;16.20;;;;;;;0.72;86.21;100897.58;103770;1247;109558;-73
2023/01/28 07:09:48;;;;;;;28.70;15.90;;;;;;;0.73;86.15;100898.77;102923;1248;1003031;-73
2023/01/28 07:12:15;;;;;;;31.00;16.90;;;;;;;0.72;86.15;100901.48;103817;1248;97048;-73
2023/01/28 07:14:43;;;;;;;28.60;16.00;;;;;;;0.70;86.25;100901.11;103784;1248;107819;-73
2023/01/28 07:17:09;;;;;;;30.00;16.70;;;;;;;0.72;86.55;100906.45;103717;1250;138169;-74
2023/01/28 07:19:36;;;;;;;31.90;17.50;;;;;;;0.72;86.39;100901.16;103780;1251;109810;-73
2023/01/28 07:22:03;;;;;;;30.10;16.70;;;;;;;0.71;86.51;100906.95;103692;1251;139690;-73
2023/01/28 07:24:31;;;;;;;29.50;15.90;;;;;;;0.70;86.63;100899.73;103811;1248;96300;-73
2023/01/28 07:26:58;;;;;;;27.10;16.10;;;;;;;0.72;86.81;100903.21;103657;1251;179720;-73
2023/01/28 07:29:25;;;;;;;30.50;16.00;;;;;;;0.72;86.45;100903.90;103735;1248;138111;-73
2023/01/28 07:31:52;;;;;;;25.90;15.80;;;;;;;0.73;86.86;100908.02;103818;1250;109953;-72
2023/01/28 07:34:19;;;;;;;28.60;16.60;;;;;;;0.73;86.78;100910.59;103602;1247;138110;-73
2023/01/28 07:36:46;;;;;;;24.90;15.50;;;;;;;0.72;86.58;100911.92;103027;1251;1003102;-73
2023/01/28 07:39:13;;;;;;;28.80;16.60;;;;;;;0.69;86.68;100914.78;103689;1250;138448;-74
2023/01/28 07:41:40;;;;;;;27.80;16.50;;;;;;;0.71;86.64;100913.09;103769;1250;96527;-74
2023/01/28 07:44:09;;;;;;;27.30;17.10;;;;;;;0.72;86.89;100917.59;103534;1254;109268;-72
2023/01/28 07:46:36;;;;;;;28.00;16.40;;;;;;;0.73;86.65;100919.85;103568;1254;140167;-73
2023/01/28 07:49:03;;;;;;;25.70;16.00;;;;;;;0.72;86.78;100918.08;103795;1260;96510;-73
2023/01/28 07:51:30;;;;;;;26.50;15.90;;;;;;;0.71;86.62;100913.44;103637;1253;138987;-73
2023/01/28 07:53:57;;;;;;;27.10;16.40;;;;;;;0.70;86.62;100913.77;103784;1250;96337;-74
2023/01/28 07:56:26;;;;;;;24.80;16.30;;;;;;;0.69;86.33;100923.16;103798;1247;110139;-72
2023/01/28 07:58:53;;;;;;;29.60;16.90;;;;;;;0.68;86.33;100921.94;103631;1248;138178;-73
2023/01/28 08:01:20;;;;;;;25.00;15.20;;;;;;;0.68;86.30;100920.93;103728;1248;96348;-73
2023/01/28 08:03:46;;;;;;;25.40;15.60;;;;;;;0.68;86.61;100919.90;103759;1247;138114;-75
2023/01/28 08:06:13;;;;;;;26.60;16.10;;;;;;;0.68;86.71;100915.61;103657;1247;96480;-74
2023/01/28 08:08:40;;;;;;;30.10;17.40;;;;;;;0.69;86.43;100919.90;103815;1251;109961;-73
2023/01/28 08:11:18;;;;;;;29.30;17.00;;;;;;;0.68;86.42;100916.48;103666;1248;138316;-74
2023/01/28 08:13:45;;;;;;;24.20;15.20;;;;;;;0.68;86.64;100917.50;103801;1248;97412;-74
2023/01/28 08:16:12;;;;;;;28.50;16.80;;;;;;;0.69;86.68;100914.25;103418;1248;138478;-74
2023/01/28 08:18:39;;;;;;;26.50;16.80;;;;;;;0.70;86.69;100913.25;103589;1251;96546;-74
2023/01/28 08:21:06;;;;;;;29.90;17.10;;;;;;;0.71;86.59;100914.81;103717;1251;109455;-72
2023/01/28 08:23:34;;;;;;;28.40;17.10;;;;;;;0.71;86.57;100918.41;103715;1251;138948;-73
2023/01/28 08:26:01;;;;;;;27.40;17.00;;;;;;;0.73;86.91;100918.45;103746;1248;94981;-73
2023/01/28 08:28:29;;;;;;;31.50;17.20;;;;;;;0.73;86.67;100917.96;103593;1250;138028;-73
2023/01/28 08:30:59;;;;;;;28.70;17.50;;;;;;;0.75;86.91;100914.23;103004;1248;1002864;-74
2023/01/28 08:33:26;;;;;;;28.60;17.40;;;;;;;0.77;86.64;100917.16;103627;1251;138631;-73
2023/01/28 08:35:53;;;;;;;28.60;17.70;;;;;;;0.77;86.46;100910.67;103776;1247;108596;-74
2023/01/28 08:38:20;;;;;;;26.50;16.70;;;;;;;0.78;86.89;100911.36;103843;1247;96334;-73
2023/01/28 08:40:49;;;;;;;38.30;24.20;;;;;;;0.82;87.33;100908.68;104096;1247;138117;-74
2023/01/28 08:43:16;;;;;;;38.60;22.80;;;;;;;0.83;87.11;100908.70;104453;1250;95064;-74
2023/01/28 08:45:43;;;;;;;29.50;18.30;;;;;;;0.84;87.01;100909.05;103717;1248;138344;-74
2023/01/28 08:48:15;;;;;;;27.30;16.40;;;;;;;0.83;86.71;100910.09;102980;1251;1003008;-74
2023/01/28 08:50:43;;;;;;;24.30;16.40;;;;;;;0.83;86.64;100908.71;103732;1250;96936;-74
2023/01/28 08:53:13;;;;;;;24.90;16.00;;;;;;;0.82;86.55;100911.10;103845;1248;137896;-74
2023/01/28 08:55:39;;;;;;;25.20;16.60;;;;;;;0.82;86.65;100913.81;103834;1250;96436;-75
2023/01/28 08:58:10;;;;;;;27.00;16.50;;;;;;;0.82;86.65;100919.30;103664;1251;139648;-73
2023/01/28 09:00:37;;;;;;;26.00;16.90;;;;;;;0.82;86.54;100911.77;103674;1248;106296;-72
2023/01/28 09:03:06;;;;;;;26.70;15.50;;;;;;;0.82;86.57;100922.40;103672;1248;96442;-72
2023/01/28 09:05:33;;;;;;;25.40;16.40;;;;;;;0.83;86.81;100921.55;103541;1247;138483;-71
2023/01/28 09:08:03;;;;;;;24.80;16.90;;;;;;;0.84;86.64;100921.73;103807;1247;96537;-74
2023/01/28 09:10:30;;;;;;;25.30;16.20;;;;;;;0.84;86.63;100929.97;103682;1252;138119;-73
2023/01/28 09:12:56;;;;;;;28.20;16.70;;;;;;;0.85;86.98;100931.00;102983;1247;1002890;-76
2023/01/28 09:15:24;;;;;;;28.10;16.70;;;;;;;0.85;86.46;100936.48;103669;1251;139899;-80
2023/01/28 09:17:56;;;;;;;25.80;16.60;;;;;;;0.87;86.87;100939.24;103553;1248;108814;-79
2023/01/28 09:20:23;;;;;;;25.80;16.80;;;;;;;0.86;86.68;100939.57;103732;1248;96498;-78
2023/01/28 09:22:50;;;;;;;27.60;17.50;;;;;;;0.85;86.75;100944.52;103649;1248;138422;-79
2023/01/28 09:25:17;;;;;;;27.70;17.20;;;;;;;0.85;86.90;100946.40;103753;1248;107598;-75
2023/01/28 09:27:44;;;;;;;26.00;16.60;;;;;;;0.84;86.67;100945.17;103643;1250;138450;-76
2023/01/28 09:30:13;;;;;;;29.20;17.70;;;;;;;0.83;86.75;100943.13;103733;1251;107981;-76
2023/01/28 09:32:41;;;;;;;32.70;19.50;;;;;;;0.85;87.12;100943.15;103682;1253;96451;-77
2023/01/28 09:35:08;;;;;;;29.50;18.00;;;;;;;0.86;86.88;100947.11;102849;1251;1003621;-76
2023/01/28 09:37:35;;;;;;;25.70;16.60;;;;;;;0.86;86.94;100948.14;103730;1247;108206;-77
2023/01/28 09:40:03;;;;;;;25.80;16.40;;;;;;;0.86;86.91;100949.34;103573;1248;139004;-77
2023/01/28 09:42:55;;;;;;;23.50;15.90;;;;;;;0.85;86.49;100947.77;103709;1248;107812;-76
2023/01/28 09:45:31;;;;;;;25.90;17.30;;;;;;;0.84;86.73;100943.98;103564;1247;138594;-76
2023/01/28 09:48:02;;;;;;;26.50;17.10;;;;;;;0.84;86.73;100943.48;102924;1254;1003484;-73
2023/01/28 09:50:33;;;;;;;25.70;16.80;;;;;;;0.86;86.94;100943.34;103662;1250;108151;-80
2023/01/28 09:53:04;;;;;;;26.40;17.10;;;;;;;0.88;86.93;100942.69;103644;1248;138250;-71
2023/01/28 09:55:35;;;;;;;26.70;17.40;;;;;;;0.87;86.75;100946.11;103635;1250;107886;-76
2023/01/28 09:58:05;;;;;;;27.10;17.50;;;;;;;0.89;86.91;100947.49;103647;1250;140113;-76
2023/01/28 10:00:38;;;;;;;28.10;17.70;;;;;;;0.90;86.70;100947.39;103527;1248;110521;-75
2023/01/28 10:03:25;;;;;;;26.10;17.70;;;;;;;0.92;87.10;100945.17;102701;1249;1003361;-72
2023/01/28 10:05:59;;;;;;;27.90;17.50;;;;;;;0.92;86.85;100939.53;103679;1248;96468;-74
2023/01/28 10:08:43;;;;;;;25.00;16.40;;;;;;;0.94;86.78;100932.88;102793;1251;1003557;-74
2023/01/28 10:11:19;;;;;;;25.00;16.90;;;;;;;0.95;86.83;100934.10;103515;1253;138478;-74
2023/01/28 10:13:54;;;;;;;22.40;15.70;;;;;;;0.95;86.60;100932.40;105158;1251;110723;-74
2023/01/28 10:16:29;;;;;;;24.10;16.00;;;;;;;0.96;86.74;100932.91;103504;1253;138622;-74
2023/01/28 10:19:01;;;;;;;26.60;16.10;;;;;;;0.96;86.57;100932.92;103783;1248;96967;-74
2023/01/28 10:21:36;;;;;;;28.00;17.10;;;;;;;0.96;86.77;100926.58;103627;1248;138189;-73
2023/01/28 10:24:11;;;;;;;24.60;15.20;;;;;;;0.96;86.59;100928.13;103758;1254;96310;-74
2023/01/28 10:26:41;;;;;;;24.50;16.20;;;;;;;0.95;86.25;100928.27;103794;1252;111099;-74
2023/01/28 10:29:18;;;;;;;24.30;15.90;;;;;;;0.94;86.31;100930.15;103648;1250;138266;-74
2023/01/28 10:31:54;;;;;;;24.90;16.00;;;;;;;0.94;86.33;100923.13;103632;1251;96593;-73
2023/01/28 10:34:24;;;;;;;25.50;16.40;;;;;;;0.93;86.29;100918.66;103707;1253;137999;-74
2023/01/28 10:36:51;;;;;;;24.80;16.10;;;;;;;0.93;86.14;100919.34;102914;1251;1003193;-73
2023/01/28 10:39:23;;;;;;;23.90;15.80;;;;;;;0.92;86.44;100920.17;103629;1252;138456;-73
2023/01/28 10:41:50;;;;;;;24.20;15.80;;;;;;;0.92;86.35;100921.38;103673;1248;106571;-73
2023/01/28 10:44:34;;;;;;;24.00;16.50;;;;;;;0.92;86.17;100918.48;103681;1247;97223;-74
2023/01/28 10:47:07;;;;;;;24.70;16.60;;;;;;;0.92;86.24;100916.77;102851;1247;1003737;-73
2023/01/28 10:49:42;;;;;;;27.90;16.70;;;;;;;0.95;86.34;100917.32;103732;1251;96334;-73
2023/01/28 10:52:14;;;;;;;27.60;17.00;;;;;;;0.97;86.29;100914.10;103634;1253;138101;-72
2023/01/28 10:54:41;;;;;;;29.40;18.10;;;;;;;0.99;86.55;100910.37;103701;1253;107394;-73
2023/01/28 10:57:14;;;;;;;36.30;22.20;;;;;;;1.02;86.44;100915.04;103870;1248;96442;-73
2023/01/28 10:59:42;;;;;;;37.60;23.00;;;;;;;1.03;86.32;100917.11;102774;1253;1003664;-74
2023/01/28 11:02:35;;;;;;;27.60;18.00;;;;;;;1.06;86.57;100914.91;103027;1250;1003697;-73
2023/01/28 11:05:07;;;;;;;27.00;17.20;;;;;;;1.08;86.41;100911.55;103668;1248;138515;-74
2023/01/28 11:07:35;;;;;;;24.60;16.80;;;;;;;1.09;86.50;100908.31;103816;1248;109279;-74
2023/01/28 11:10:02;;;;;;;25.30;17.10;;;;;;;1.10;86.62;100910.91;103692;1251;138111;-73
2023/01/28 11:12:30;;;;;;;28.00;18.10;;;;;;;1.12;86.46;100910.44;103840;1247;107964;-72
2023/01/28 11:14:59;;;;;;;26.10;17.10;;;;;;;1.13;86.45;100904.79;103818;1252;96309;-73
2023/01/28 11:17:28;;;;;;;26.20;17.50;;;;;;;1.12;86.05;100905.63;103779;1247;138054;-73
2023/01/28 11:19:58;;;;;;;26.60;18.20;;;;;;;1.12;86.17;100905.30;103706;1247;107467;-73
2023/01/28 11:22:32;;;;;;;27.20;18.40;;;;;;;1.13;86.15;100904.80;103689;1248;138176;-73
2023/01/28 11:25:00;;;;;;;26.00;17.30;;;;;;;1.14;86.19;100900.00;103789;1248;107706;-72
2023/01/28 11:27:31;;;;;;;26.40;18.30;;;;;;;1.11;85.74;100896.37;103659;1247;138366;-73
2023/01/28 11:30:02;;;;;;;25.30;17.20;;;;;;;1.07;85.68;100896.62;103680;1253;109804;-73
2023/01/28 11:32:30;;;;;;;27.30;17.90;;;;;;;1.04;85.73;100899.14;104191;1247;1002634;-74
2023/01/28 11:34:58;;;;;;;29.90;19.60;;;;;;;1.03;86.10;100895.19;103639;1247;138640;-72
2023/01/28 11:37:26;;;;;;;34.40;18.60;;;;;;;1.04;86.08;100892.81;102795;1248;1003147;-73
2023/01/28 11:40:19;;;;;;;26.40;18.70;;;;;;;1.04;85.99;100889.55;102844;1253;1002642;-72
2023/01/28 11:42:48;;;;;;;32.00;19.80;;;;;;;1.04;85.95;100886.81;102868;1248;1003002;-73
2023/01/28 11:45:20;;;;;;;27.50;17.80;;;;;;;1.04;85.88;100886.64;102881;1247;1002481;-73